sensor_id;sensor_type;location;lat;lon;timestamp;P1;durP1;ratioP1;P2;durP2;ratioP2
11653;SDS011;5883;48.818;9.114;2023-04-24T00:01:32;1.98;;;1.08;;
11653;SDS011;5883;48.818;9.114;2023-04-24T00:04:19;3.40;;;1.10;;
11653;SDS011;5883;48.818;9.114;2023-04-24T00:07:04;2.13;;;1.00;;
11653;SDS011;5883;48.818;9.114;2023-04-24T00:09:50;1.20;;;1.10;;
11653;SDS011;5883;48.818;9.114;2023-04-24T00:12:35;2.65;;;1.20;;
11653;SDS011;5883;48.818;9.114;2023-04-24T00:15:20;1.35;;;0.90;;
11653;SDS011;5883;48.818;9.114;2023-04-24T00:18:05;3.17;;;1.10;;
11653;SDS011;5883;48.818;9.114;2023-04-24T00:20:52;1.08;;;0.90;;
11653;SDS011;5883;48.818;9.114;2023-04-24T00:23:37;0.95;;;0.90;;
11653;SDS011;5883;48.818;9.114;2023-04-24T00:26:22;1.73;;;1.05;;
11653;SDS011;5883;48.818;9.114;2023-04-24T00:29:07;1.38;;;0.93;;
11653;SDS011;5883;48.818;9.114;2023-04-24T00:31:52;1.10;;;0.98;;
11653;SDS011;5883;48.818;9.114;2023-04-24T00:34:37;1.17;;;1.00;;
11653;SDS011;5883;48.818;9.114;2023-04-24T00:37:24;2.33;;;1.00;;
11653;SDS011;5883;48.818;9.114;2023-04-24T00:40:10;1.08;;;0.98;;
11653;SDS011;5883;48.818;9.114;2023-04-24T00:42:55;2.17;;;1.13;;
11653;SDS011;5883;48.818;9.114;2023-04-24T00:45:40;0.90;;;0.90;;
11653;SDS011;5883;48.818;9.114;2023-04-24T00:48:25;2.55;;;1.00;;
11653;SDS011;5883;48.818;9.114;2023-04-24T00:51:11;1.20;;;1.10;;
11653;SDS011;5883;48.818;9.114;2023-04-24T00:53:57;2.17;;;1.10;;
11653;SDS011;5883;48.818;9.114;2023-04-24T00:56:42;5.03;;;1.10;;
11653;SDS011;5883;48.818;9.114;2023-04-24T00:59:29;2.67;;;1.00;;
11653;SDS011;5883;48.818;9.114;2023-04-24T01:02:14;1.48;;;1.10;;
11653;SDS011;5883;48.818;9.114;2023-04-24T01:04:59;1.35;;;1.00;;
11653;SDS011;5883;48.818;9.114;2023-04-24T01:07:45;1.45;;;1.10;;
11653;SDS011;5883;48.818;9.114;2023-04-24T01:10:34;1.10;;;0.90;;
11653;SDS011;5883;48.818;9.114;2023-04-24T01:13:19;2.10;;;1.17;;
11653;SDS011;5883;48.818;9.114;2023-04-24T01:16:05;1.48;;;0.80;;
11653;SDS011;5883;48.818;9.114;2023-04-24T01:18:50;1.00;;;0.90;;
11653;SDS011;5883;48.818;9.114;2023-04-24T01:21:35;1.15;;;0.90;;
11653;SDS011;5883;48.818;9.114;2023-04-24T01:24:22;1.83;;;1.00;;
11653;SDS011;5883;48.818;9.114;2023-04-24T01:27:08;1.45;;;0.95;;
11653;SDS011;5883;48.818;9.114;2023-04-24T01:29:54;1.20;;;1.05;;
11653;SDS011;5883;48.818;9.114;2023-04-24T01:32:39;1.92;;;0.80;;
11653;SDS011;5883;48.818;9.114;2023-04-24T01:35:25;1.80;;;0.80;;
11653;SDS011;5883;48.818;9.114;2023-04-24T01:38:10;0.98;;;0.93;;
11653;SDS011;5883;48.818;9.114;2023-04-24T01:40:57;1.02;;;0.82;;
11653;SDS011;5883;48.818;9.114;2023-04-24T01:43:42;1.67;;;0.90;;
11653;SDS011;5883;48.818;9.114;2023-04-24T01:46:26;1.17;;;1.00;;
11653;SDS011;5883;48.818;9.114;2023-04-24T01:49:12;0.75;;;0.75;;
11653;SDS011;5883;48.818;9.114;2023-04-24T01:51:56;1.25;;;0.98;;
11653;SDS011;5883;48.818;9.114;2023-04-24T01:54:41;1.17;;;1.08;;
11653;SDS011;5883;48.818;9.114;2023-04-24T01:57:28;1.00;;;0.90;;
11653;SDS011;5883;48.818;9.114;2023-04-24T02:00:14;1.10;;;0.98;;
11653;SDS011;5883;48.818;9.114;2023-04-24T02:02:59;1.80;;;1.10;;
11653;SDS011;5883;48.818;9.114;2023-04-24T02:05:45;1.55;;;1.00;;
11653;SDS011;5883;48.818;9.114;2023-04-24T02:08:30;3.33;;;1.00;;
11653;SDS011;5883;48.818;9.114;2023-04-24T02:11:15;1.08;;;0.98;;
11653;SDS011;5883;48.818;9.114;2023-04-24T02:14:01;1.88;;;1.17;;
11653;SDS011;5883;48.818;9.114;2023-04-24T02:16:46;1.52;;;1.20;;
11653;SDS011;5883;48.818;9.114;2023-04-24T02:19:31;3.10;;;1.10;;
11653;SDS011;5883;48.818;9.114;2023-04-24T02:22:16;1.10;;;1.00;;
11653;SDS011;5883;48.818;9.114;2023-04-24T02:25:01;2.58;;;1.10;;
11653;SDS011;5883;48.818;9.114;2023-04-24T02:27:46;1.45;;;0.88;;
11653;SDS011;5883;48.818;9.114;2023-04-24T02:30:32;1.17;;;0.95;;
11653;SDS011;5883;48.818;9.114;2023-04-24T02:33:18;3.92;;;1.27;;
11653;SDS011;5883;48.818;9.114;2023-04-24T02:36:03;2.17;;;1.13;;
11653;SDS011;5883;48.818;9.114;2023-04-24T02:38:48;2.95;;;1.13;;
11653;SDS011;5883;48.818;9.114;2023-04-24T02:41:33;0.82;;;0.82;;
11653;SDS011;5883;48.818;9.114;2023-04-24T02:44:18;4.93;;;1.20;;
11653;SDS011;5883;48.818;9.114;2023-04-24T02:47:04;1.55;;;1.10;;
11653;SDS011;5883;48.818;9.114;2023-04-24T02:49:50;2.17;;;1.25;;
11653;SDS011;5883;48.818;9.114;2023-04-24T02:52:35;1.10;;;0.98;;
11653;SDS011;5883;48.818;9.114;2023-04-24T02:55:19;1.50;;;1.00;;
11653;SDS011;5883;48.818;9.114;2023-04-24T02:58:04;1.27;;;1.15;;
11653;SDS011;5883;48.818;9.114;2023-04-24T03:00:52;1.13;;;1.00;;
11653;SDS011;5883;48.818;9.114;2023-04-24T03:03:39;3.58;;;1.02;;
11653;SDS011;5883;48.818;9.114;2023-04-24T03:06:24;2.58;;;1.33;;
11653;SDS011;5883;48.818;9.114;2023-04-24T03:09:10;1.30;;;0.98;;
11653;SDS011;5883;48.818;9.114;2023-04-24T03:11:55;1.30;;;1.20;;
11653;SDS011;5883;48.818;9.114;2023-04-24T03:14:41;1.63;;;1.20;;
11653;SDS011;5883;48.818;9.114;2023-04-24T03:17:26;1.15;;;1.00;;
11653;SDS011;5883;48.818;9.114;2023-04-24T03:20:12;2.03;;;1.10;;
11653;SDS011;5883;48.818;9.114;2023-04-24T03:22:57;1.13;;;1.00;;
11653;SDS011;5883;48.818;9.114;2023-04-24T03:25:42;2.63;;;1.08;;
11653;SDS011;5883;48.818;9.114;2023-04-24T03:28:27;2.30;;;1.13;;
11653;SDS011;5883;48.818;9.114;2023-04-24T03:31:12;2.33;;;1.10;;
11653;SDS011;5883;48.818;9.114;2023-04-24T03:33:59;1.27;;;1.10;;
11653;SDS011;5883;48.818;9.114;2023-04-24T03:36:45;1.55;;;1.13;;
11653;SDS011;5883;48.818;9.114;2023-04-24T03:39:32;3.58;;;1.10;;
11653;SDS011;5883;48.818;9.114;2023-04-24T03:42:16;1.10;;;1.00;;
11653;SDS011;5883;48.818;9.114;2023-04-24T03:45:02;1.42;;;1.08;;
11653;SDS011;5883;48.818;9.114;2023-04-24T03:47:47;1.60;;;1.13;;
11653;SDS011;5883;48.818;9.114;2023-04-24T03:50:32;1.00;;;0.98;;
11653;SDS011;5883;48.818;9.114;2023-04-24T03:53:18;1.33;;;0.93;;
11653;SDS011;5883;48.818;9.114;2023-04-24T03:56:04;1.38;;;1.10;;
11653;SDS011;5883;48.818;9.114;2023-04-24T03:58:49;5.45;;;1.05;;
11653;SDS011;5883;48.818;9.114;2023-04-24T04:01:34;1.85;;;1.00;;
11653;SDS011;5883;48.818;9.114;2023-04-24T04:04:22;1.52;;;0.95;;
11653;SDS011;5883;48.818;9.114;2023-04-24T04:07:07;1.33;;;0.98;;
11653;SDS011;5883;48.818;9.114;2023-04-24T04:09:54;2.05;;;0.80;;
11653;SDS011;5883;48.818;9.114;2023-04-24T04:12:39;1.13;;;1.00;;
11653;SDS011;5883;48.818;9.114;2023-04-24T04:15:24;2.30;;;1.00;;
11653;SDS011;5883;48.818;9.114;2023-04-24T04:18:09;2.47;;;1.10;;
11653;SDS011;5883;48.818;9.114;2023-04-24T04:20:54;1.20;;;1.10;;
11653;SDS011;5883;48.818;9.114;2023-04-24T04:23:40;2.95;;;1.02;;
11653;SDS011;5883;48.818;9.114;2023-04-24T04:26:27;2.95;;;1.30;;
11653;SDS011;5883;48.818;9.114;2023-04-24T04:29:12;1.65;;;1.00;;
11653;SDS011;5883;48.818;9.114;2023-04-24T04:31:57;1.23;;;1.13;;
11653;SDS011;5883;48.818;9.114;2023-04-24T04:34:42;4.93;;;1.30;;
11653;SDS011;5883;48.818;9.114;2023-04-24T04:37:28;1.52;;;1.20;;
11653;SDS011;5883;48.818;9.114;2023-04-24T04:40:15;1.40;;;1.13;;
11653;SDS011;5883;48.818;9.114;2023-04-24T04:43:01;1.30;;;1.20;;
11653;SDS011;5883;48.818;9.114;2023-04-24T04:45:46;1.33;;;1.10;;
11653;SDS011;5883;48.818;9.114;2023-04-24T04:48:33;1.40;;;1.27;;
11653;SDS011;5883;48.818;9.114;2023-04-24T04:51:18;2.75;;;1.10;;
11653;SDS011;5883;48.818;9.114;2023-04-24T04:54:04;2.33;;;1.05;;
11653;SDS011;5883;48.818;9.114;2023-04-24T04:56:49;1.10;;;1.00;;
11653;SDS011;5883;48.818;9.114;2023-04-24T04:59:36;3.00;;;1.10;;
11653;SDS011;5883;48.818;9.114;2023-04-24T05:02:21;1.67;;;1.20;;
11653;SDS011;5883;48.818;9.114;2023-04-24T05:05:06;1.52;;;1.30;;
11653;SDS011;5883;48.818;9.114;2023-04-24T05:07:52;1.15;;;1.05;;
11653;SDS011;5883;48.818;9.114;2023-04-24T05:10:37;1.10;;;0.98;;
11653;SDS011;5883;48.818;9.114;2023-04-24T05:13:22;1.42;;;1.00;;
11653;SDS011;5883;48.818;9.114;2023-04-24T05:16:08;1.20;;;1.10;;
11653;SDS011;5883;48.818;9.114;2023-04-24T05:18:53;0.95;;;0.90;;
11653;SDS011;5883;48.818;9.114;2023-04-24T05:21:38;1.27;;;1.17;;
11653;SDS011;5883;48.818;9.114;2023-04-24T05:24:24;1.35;;;1.10;;
11653;SDS011;5883;48.818;9.114;2023-04-24T05:27:09;2.15;;;1.15;;
11653;SDS011;5883;48.818;9.114;2023-04-24T05:29:54;2.35;;;1.20;;
11653;SDS011;5883;48.818;9.114;2023-04-24T05:32:40;1.50;;;1.20;;
11653;SDS011;5883;48.818;9.114;2023-04-24T05:35:25;3.42;;;1.23;;
11653;SDS011;5883;48.818;9.114;2023-04-24T05:38:10;1.38;;;1.23;;
11653;SDS011;5883;48.818;9.114;2023-04-24T05:40:58;1.67;;;1.13;;
11653;SDS011;5883;48.818;9.114;2023-04-24T05:43:43;1.67;;;1.10;;
11653;SDS011;5883;48.818;9.114;2023-04-24T05:46:28;1.08;;;0.98;;
11653;SDS011;5883;48.818;9.114;2023-04-24T05:49:15;1.50;;;1.30;;
11653;SDS011;5883;48.818;9.114;2023-04-24T05:52:00;1.77;;;1.20;;
11653;SDS011;5883;48.818;9.114;2023-04-24T05:54:46;1.23;;;1.10;;
11653;SDS011;5883;48.818;9.114;2023-04-24T05:57:31;2.28;;;1.30;;
11653;SDS011;5883;48.818;9.114;2023-04-24T06:00:16;1.55;;;1.23;;
11653;SDS011;5883;48.818;9.114;2023-04-24T06:03:03;1.42;;;1.33;;
11653;SDS011;5883;48.818;9.114;2023-04-24T06:05:50;2.28;;;1.35;;
11653;SDS011;5883;48.818;9.114;2023-04-24T06:08:36;1.35;;;1.25;;
11653;SDS011;5883;48.818;9.114;2023-04-24T06:11:21;1.40;;;1.30;;
11653;SDS011;5883;48.818;9.114;2023-04-24T06:14:06;1.52;;;1.35;;
11653;SDS011;5883;48.818;9.114;2023-04-24T06:16:51;1.92;;;1.40;;
11653;SDS011;5883;48.818;9.114;2023-04-24T06:19:36;1.55;;;1.45;;
11653;SDS011;5883;48.818;9.114;2023-04-24T06:22:22;2.40;;;1.70;;
11653;SDS011;5883;48.818;9.114;2023-04-24T06:25:07;2.63;;;1.42;;
11653;SDS011;5883;48.818;9.114;2023-04-24T06:27:53;2.08;;;1.40;;
11653;SDS011;5883;48.818;9.114;2023-04-24T06:30:38;2.83;;;1.10;;
11653;SDS011;5883;48.818;9.114;2023-04-24T06:33:23;1.45;;;1.23;;
11653;SDS011;5883;48.818;9.114;2023-04-24T06:36:08;4.30;;;1.42;;
11653;SDS011;5883;48.818;9.114;2023-04-24T06:38:54;1.85;;;1.05;;
11653;SDS011;5883;48.818;9.114;2023-04-24T06:41:41;2.97;;;0.90;;
11653;SDS011;5883;48.818;9.114;2023-04-24T06:44:26;1.35;;;1.00;;
11653;SDS011;5883;48.818;9.114;2023-04-24T06:47:11;1.30;;;1.08;;
11653;SDS011;5883;48.818;9.114;2023-04-24T06:49:56;1.13;;;1.02;;
11653;SDS011;5883;48.818;9.114;2023-04-24T06:52:41;1.50;;;0.85;;
11653;SDS011;5883;48.818;9.114;2023-04-24T06:55:28;1.20;;;1.05;;
11653;SDS011;5883;48.818;9.114;2023-04-24T06:58:13;1.92;;;1.10;;
11653;SDS011;5883;48.818;9.114;2023-04-24T07:00:59;2.08;;;1.17;;
11653;SDS011;5883;48.818;9.114;2023-04-24T07:03:44;1.23;;;1.10;;
11653;SDS011;5883;48.818;9.114;2023-04-24T07:06:29;1.80;;;0.90;;
11653;SDS011;5883;48.818;9.114;2023-04-24T07:09:15;2.83;;;1.20;;
11653;SDS011;5883;48.818;9.114;2023-04-24T07:12:03;1.75;;;1.00;;
11653;SDS011;5883;48.818;9.114;2023-04-24T07:14:50;1.00;;;0.90;;
11653;SDS011;5883;48.818;9.114;2023-04-24T07:17:35;1.83;;;1.10;;
11653;SDS011;5883;48.818;9.114;2023-04-24T07:20:22;1.60;;;1.13;;
11653;SDS011;5883;48.818;9.114;2023-04-24T07:23:07;6.25;;;1.67;;
11653;SDS011;5883;48.818;9.114;2023-04-24T07:25:52;3.53;;;1.33;;
11653;SDS011;5883;48.818;9.114;2023-04-24T07:28:38;1.10;;;1.00;;
11653;SDS011;5883;48.818;9.114;2023-04-24T07:31:24;2.00;;;1.10;;
11653;SDS011;5883;48.818;9.114;2023-04-24T07:34:09;1.75;;;1.40;;
11653;SDS011;5883;48.818;9.114;2023-04-24T07:36:54;2.13;;;1.15;;
11653;SDS011;5883;48.818;9.114;2023-04-24T07:39:40;1.85;;;1.00;;
11653;SDS011;5883;48.818;9.114;2023-04-24T07:42:25;1.30;;;1.10;;
11653;SDS011;5883;48.818;9.114;2023-04-24T07:45:11;1.60;;;1.27;;
11653;SDS011;5883;48.818;9.114;2023-04-24T07:47:56;1.20;;;1.10;;
11653;SDS011;5883;48.818;9.114;2023-04-24T07:50:41;1.20;;;1.10;;
11653;SDS011;5883;48.818;9.114;2023-04-24T07:53:26;1.20;;;1.05;;
11653;SDS011;5883;48.818;9.114;2023-04-24T07:56:11;1.25;;;1.02;;
11653;SDS011;5883;48.818;9.114;2023-04-24T07:58:57;1.58;;;1.15;;
11653;SDS011;5883;48.818;9.114;2023-04-24T08:01:43;0.98;;;0.88;;
11653;SDS011;5883;48.818;9.114;2023-04-24T08:04:28;1.92;;;0.90;;
11653;SDS011;5883;48.818;9.114;2023-04-24T08:07:13;1.65;;;0.90;;
11653;SDS011;5883;48.818;9.114;2023-04-24T08:09:58;1.92;;;1.10;;
11653;SDS011;5883;48.818;9.114;2023-04-24T08:12:44;2.70;;;0.98;;
11653;SDS011;5883;48.818;9.114;2023-04-24T08:15:29;1.92;;;0.95;;
11653;SDS011;5883;48.818;9.114;2023-04-24T08:18:15;0.90;;;0.88;;
11653;SDS011;5883;48.818;9.114;2023-04-24T08:21:01;1.58;;;0.93;;
11653;SDS011;5883;48.818;9.114;2023-04-24T08:23:46;1.33;;;0.90;;
11653;SDS011;5883;48.818;9.114;2023-04-24T08:26:31;1.58;;;1.20;;
11653;SDS011;5883;48.818;9.114;2023-04-24T08:29:16;1.92;;;1.30;;
11653;SDS011;5883;48.818;9.114;2023-04-24T08:32:01;1.33;;;0.90;;
11653;SDS011;5883;48.818;9.114;2023-04-24T08:34:48;2.08;;;1.20;;
11653;SDS011;5883;48.818;9.114;2023-04-24T08:37:33;1.30;;;1.00;;
11653;SDS011;5883;48.818;9.114;2023-04-24T08:40:18;1.80;;;1.00;;
11653;SDS011;5883;48.818;9.114;2023-04-24T08:43:07;1.55;;;1.13;;
11653;SDS011;5883;48.818;9.114;2023-04-24T08:45:52;3.08;;;1.08;;
11653;SDS011;5883;48.818;9.114;2023-04-24T08:48:37;1.70;;;1.33;;
11653;SDS011;5883;48.818;9.114;2023-04-24T08:51:24;2.70;;;1.20;;
11653;SDS011;5883;48.818;9.114;2023-04-24T08:54:11;1.55;;;1.30;;
11653;SDS011;5883;48.818;9.114;2023-04-24T08:56:58;2.85;;;1.25;;
11653;SDS011;5883;48.818;9.114;2023-04-24T08:59:45;1.83;;;1.38;;
11653;SDS011;5883;48.818;9.114;2023-04-24T09:02:31;2.90;;;1.08;;
11653;SDS011;5883;48.818;9.114;2023-04-24T09:05:18;1.52;;;1.00;;
11653;SDS011;5883;48.818;9.114;2023-04-24T09:08:06;3.10;;;1.30;;
11653;SDS011;5883;48.818;9.114;2023-04-24T09:10:54;1.80;;;1.23;;
11653;SDS011;5883;48.818;9.114;2023-04-24T09:13:41;2.28;;;1.27;;
11653;SDS011;5883;48.818;9.114;2023-04-24T09:16:28;1.55;;;1.35;;
11653;SDS011;5883;48.818;9.114;2023-04-24T09:19:13;2.08;;;1.10;;
11653;SDS011;5883;48.818;9.114;2023-04-24T09:21:58;1.45;;;1.20;;
11653;SDS011;5883;48.818;9.114;2023-04-24T09:24:45;2.22;;;1.40;;
11653;SDS011;5883;48.818;9.114;2023-04-24T09:27:30;1.27;;;1.00;;
11653;SDS011;5883;48.818;9.114;2023-04-24T09:30:16;2.22;;;1.20;;
11653;SDS011;5883;48.818;9.114;2023-04-24T09:33:12;1.48;;;1.35;;
11653;SDS011;5883;48.818;9.114;2023-04-24T09:35:57;1.90;;;1.40;;
11653;SDS011;5883;48.818;9.114;2023-04-24T09:38:42;1.30;;;1.20;;
11653;SDS011;5883;48.818;9.114;2023-04-24T09:41:29;1.88;;;1.30;;
11653;SDS011;5883;48.818;9.114;2023-04-24T09:44:14;2.70;;;1.30;;
11653;SDS011;5883;48.818;9.114;2023-04-24T09:47:00;1.42;;;1.20;;
11653;SDS011;5883;48.818;9.114;2023-04-24T09:49:44;6.68;;;1.42;;
11653;SDS011;5883;48.818;9.114;2023-04-24T09:52:29;1.70;;;1.15;;
11653;SDS011;5883;48.818;9.114;2023-04-24T09:55:18;3.45;;;1.23;;
11653;SDS011;5883;48.818;9.114;2023-04-24T09:58:05;1.23;;;1.10;;
11653;SDS011;5883;48.818;9.114;2023-04-24T10:00:53;1.92;;;1.13;;
11653;SDS011;5883;48.818;9.114;2023-04-24T10:03:38;1.45;;;1.33;;
11653;SDS011;5883;48.818;9.114;2023-04-24T10:06:31;1.55;;;1.20;;
11653;SDS011;5883;48.818;9.114;2023-04-24T10:09:16;1.90;;;1.60;;
11653;SDS011;5883;48.818;9.114;2023-04-24T10:12:01;1.85;;;1.45;;
11653;SDS011;5883;48.818;9.114;2023-04-24T10:14:53;2.40;;;1.80;;
11653;SDS011;5883;48.818;9.114;2023-04-24T10:17:38;1.30;;;1.20;;
11653;SDS011;5883;48.818;9.114;2023-04-24T10:20:24;1.67;;;1.35;;
11653;SDS011;5883;48.818;9.114;2023-04-24T10:23:09;2.22;;;1.20;;
11653;SDS011;5883;48.818;9.114;2023-04-24T10:25:55;1.52;;;1.10;;
11653;SDS011;5883;48.818;9.114;2023-04-24T10:28:40;2.35;;;1.10;;
11653;SDS011;5883;48.818;9.114;2023-04-24T10:31:28;1.67;;;1.40;;
11653;SDS011;5883;48.818;9.114;2023-04-24T10:34:15;1.40;;;1.30;;
11653;SDS011;5883;48.818;9.114;2023-04-24T10:37:01;2.17;;;1.40;;
11653;SDS011;5883;48.818;9.114;2023-04-24T10:39:47;2.03;;;1.30;;
11653;SDS011;5883;48.818;9.114;2023-04-24T10:42:35;1.45;;;1.20;;
11653;SDS011;5883;48.818;9.114;2023-04-24T10:45:21;2.65;;;1.30;;
11653;SDS011;5883;48.818;9.114;2023-04-24T10:48:08;1.33;;;1.23;;
11653;SDS011;5883;48.818;9.114;2023-04-24T10:50:57;1.33;;;1.20;;
11653;SDS011;5883;48.818;9.114;2023-04-24T10:53:42;1.83;;;1.30;;
11653;SDS011;5883;48.818;9.114;2023-04-24T10:56:27;2.95;;;1.77;;
11653;SDS011;5883;48.818;9.114;2023-04-24T10:59:13;1.65;;;1.35;;
11653;SDS011;5883;48.818;9.114;2023-04-24T11:02:08;1.45;;;1.35;;
11653;SDS011;5883;48.818;9.114;2023-04-24T11:04:54;1.50;;;1.40;;
11653;SDS011;5883;48.818;9.114;2023-04-24T11:10:40;3.67;;;1.33;;
11653;SDS011;5883;48.818;9.114;2023-04-24T11:13:25;1.27;;;1.10;;
11653;SDS011;5883;48.818;9.114;2023-04-24T11:16:14;5.80;;;1.67;;
11653;SDS011;5883;48.818;9.114;2023-04-24T11:19:00;4.60;;;1.20;;
11653;SDS011;5883;48.818;9.114;2023-04-24T11:21:47;1.30;;;1.20;;
11653;SDS011;5883;48.818;9.114;2023-04-24T11:24:36;2.55;;;1.88;;
11653;SDS011;5883;48.818;9.114;2023-04-24T11:27:22;1.40;;;1.30;;
11653;SDS011;5883;48.818;9.114;2023-04-24T11:30:08;1.67;;;1.40;;
11653;SDS011;5883;48.818;9.114;2023-04-24T11:32:54;1.40;;;1.13;;
11653;SDS011;5883;48.818;9.114;2023-04-24T11:35:39;2.13;;;1.30;;
11653;SDS011;5883;48.818;9.114;2023-04-24T11:38:26;2.53;;;1.13;;
11653;SDS011;5883;48.818;9.114;2023-04-24T11:41:12;1.20;;;1.10;;
11653;SDS011;5883;48.818;9.114;2023-04-24T11:43:58;4.00;;;1.25;;
11653;SDS011;5883;48.818;9.114;2023-04-24T11:46:43;1.90;;;1.23;;
11653;SDS011;5883;48.818;9.114;2023-04-24T11:49:28;1.33;;;1.02;;
11653;SDS011;5883;48.818;9.114;2023-04-24T11:52:15;2.55;;;1.10;;
11653;SDS011;5883;48.818;9.114;2023-04-24T11:55:01;6.38;;;1.30;;
11653;SDS011;5883;48.818;9.114;2023-04-24T11:57:49;1.20;;;1.10;;
11653;SDS011;5883;48.818;9.114;2023-04-24T12:00:35;1.65;;;1.40;;
11653;SDS011;5883;48.818;9.114;2023-04-24T12:03:20;1.27;;;1.17;;
11653;SDS011;5883;48.818;9.114;2023-04-24T12:06:05;3.17;;;1.40;;
11653;SDS011;5883;48.818;9.114;2023-04-24T12:08:51;1.58;;;1.40;;
11653;SDS011;5883;48.818;9.114;2023-04-24T12:11:40;1.50;;;1.33;;
11653;SDS011;5883;48.818;9.114;2023-04-24T12:14:44;1.88;;;1.23;;
11653;SDS011;5883;48.818;9.114;2023-04-24T12:17:30;2.05;;;1.20;;
11653;SDS011;5883;48.818;9.114;2023-04-24T12:20:15;1.20;;;1.10;;
11653;SDS011;5883;48.818;9.114;2023-04-24T12:23:00;2.60;;;1.40;;
11653;SDS011;5883;48.818;9.114;2023-04-24T12:25:46;1.63;;;1.17;;
11653;SDS011;5883;48.818;9.114;2023-04-24T12:28:36;1.25;;;1.15;;
11653;SDS011;5883;48.818;9.114;2023-04-24T12:31:21;2.97;;;1.50;;
11653;SDS011;5883;48.818;9.114;2023-04-24T12:34:17;1.90;;;1.35;;
11653;SDS011;5883;48.818;9.114;2023-04-24T12:37:09;5.78;;;1.48;;
11653;SDS011;5883;48.818;9.114;2023-04-24T12:40:00;2.53;;;1.35;;
11653;SDS011;5883;48.818;9.114;2023-04-24T12:42:46;2.35;;;1.42;;
11653;SDS011;5883;48.818;9.114;2023-04-24T12:45:33;1.90;;;1.55;;
11653;SDS011;5883;48.818;9.114;2023-04-24T12:48:18;3.55;;;1.25;;
11653;SDS011;5883;48.818;9.114;2023-04-24T12:51:04;2.00;;;1.30;;
11653;SDS011;5883;48.818;9.114;2023-04-24T12:53:49;1.45;;;1.30;;
11653;SDS011;5883;48.818;9.114;2023-04-24T12:56:34;2.13;;;1.58;;
11653;SDS011;5883;48.818;9.114;2023-04-24T12:59:23;1.50;;;1.27;;
11653;SDS011;5883;48.818;9.114;2023-04-24T13:02:09;1.30;;;1.20;;
11653;SDS011;5883;48.818;9.114;2023-04-24T13:04:54;2.35;;;1.42;;
11653;SDS011;5883;48.818;9.114;2023-04-24T13:07:39;2.20;;;1.27;;
11653;SDS011;5883;48.818;9.114;2023-04-24T13:10:24;2.33;;;1.80;;
11653;SDS011;5883;48.818;9.114;2023-04-24T13:13:09;2.00;;;1.80;;
11653;SDS011;5883;48.818;9.114;2023-04-24T13:15:57;2.20;;;1.50;;
11653;SDS011;5883;48.818;9.114;2023-04-24T13:18:43;1.75;;;1.40;;
11653;SDS011;5883;48.818;9.114;2023-04-24T13:21:28;3.53;;;1.70;;
11653;SDS011;5883;48.818;9.114;2023-04-24T13:24:14;2.80;;;1.83;;
11653;SDS011;5883;48.818;9.114;2023-04-24T13:26:59;1.50;;;1.40;;
11653;SDS011;5883;48.818;9.114;2023-04-24T13:29:44;3.20;;;1.67;;
11653;SDS011;5883;48.818;9.114;2023-04-24T13:32:29;1.98;;;1.50;;
11653;SDS011;5883;48.818;9.114;2023-04-24T13:35:16;2.72;;;1.70;;
11653;SDS011;5883;48.818;9.114;2023-04-24T13:38:01;2.00;;;1.80;;
11653;SDS011;5883;48.818;9.114;2023-04-24T13:40:49;2.65;;;1.67;;
11653;SDS011;5883;48.818;9.114;2023-04-24T13:43:34;2.70;;;1.40;;
11653;SDS011;5883;48.818;9.114;2023-04-24T13:46:19;1.75;;;1.38;;
11653;SDS011;5883;48.818;9.114;2023-04-24T13:49:04;2.05;;;1.88;;
11653;SDS011;5883;48.818;9.114;2023-04-24T13:51:51;1.52;;;1.35;;
11653;SDS011;5883;48.818;9.114;2023-04-24T13:54:36;3.55;;;1.38;;
11653;SDS011;5883;48.818;9.114;2023-04-24T13:57:21;1.23;;;1.10;;
11653;SDS011;5883;48.818;9.114;2023-04-24T14:00:06;2.50;;;1.33;;
11653;SDS011;5883;48.818;9.114;2023-04-24T14:02:53;6.63;;;1.40;;
11653;SDS011;5883;48.818;9.114;2023-04-24T14:05:38;2.05;;;1.20;;
11653;SDS011;5883;48.818;9.114;2023-04-24T14:08:25;1.48;;;1.38;;
11653;SDS011;5883;48.818;9.114;2023-04-24T14:11:10;1.30;;;1.20;;
11653;SDS011;5883;48.818;9.114;2023-04-24T14:13:55;1.50;;;1.40;;
11653;SDS011;5883;48.818;9.114;2023-04-24T14:16:41;1.52;;;1.42;;
11653;SDS011;5883;48.818;9.114;2023-04-24T14:19:26;2.58;;;1.60;;
11653;SDS011;5883;48.818;9.114;2023-04-24T14:22:13;1.60;;;1.40;;
11653;SDS011;5883;48.818;9.114;2023-04-24T14:24:59;1.77;;;1.60;;
11653;SDS011;5883;48.818;9.114;2023-04-24T14:27:45;1.70;;;1.40;;
11653;SDS011;5883;48.818;9.114;2023-04-24T14:30:30;1.48;;;1.30;;
11653;SDS011;5883;48.818;9.114;2023-04-24T14:33:18;2.97;;;1.40;;
11653;SDS011;5883;48.818;9.114;2023-04-24T14:36:03;1.73;;;1.40;;
11653;SDS011;5883;48.818;9.114;2023-04-24T14:38:49;1.52;;;1.42;;
11653;SDS011;5883;48.818;9.114;2023-04-24T14:41:35;2.20;;;1.52;;
11653;SDS011;5883;48.818;9.114;2023-04-24T14:44:21;4.60;;;1.58;;
11653;SDS011;5883;48.818;9.114;2023-04-24T14:47:05;2.55;;;1.50;;
11653;SDS011;5883;48.818;9.114;2023-04-24T14:49:51;1.58;;;1.48;;
11653;SDS011;5883;48.818;9.114;2023-04-24T14:52:36;2.65;;;1.98;;
11653;SDS011;5883;48.818;9.114;2023-04-24T14:55:21;1.58;;;1.48;;
11653;SDS011;5883;48.818;9.114;2023-04-24T14:58:07;1.88;;;1.52;;
11653;SDS011;5883;48.818;9.114;2023-04-24T15:00:52;1.77;;;1.50;;
11653;SDS011;5883;48.818;9.114;2023-04-24T15:03:38;3.17;;;1.60;;
11653;SDS011;5883;48.818;9.114;2023-04-24T15:06:23;4.00;;;1.63;;
11653;SDS011;5883;48.818;9.114;2023-04-24T15:09:08;1.83;;;1.40;;
11653;SDS011;5883;48.818;9.114;2023-04-24T15:11:54;1.55;;;1.45;;
11653;SDS011;5883;48.818;9.114;2023-04-24T15:14:41;1.60;;;1.50;;
11653;SDS011;5883;48.818;9.114;2023-04-24T15:17:26;2.45;;;1.63;;
11653;SDS011;5883;48.818;9.114;2023-04-24T15:20:11;2.38;;;1.52;;
11653;SDS011;5883;48.818;9.114;2023-04-24T15:22:56;2.63;;;1.70;;
11653;SDS011;5883;48.818;9.114;2023-04-24T15:25:42;1.52;;;1.40;;
11653;SDS011;5883;48.818;9.114;2023-04-24T15:28:27;3.15;;;1.50;;
11653;SDS011;5883;48.818;9.114;2023-04-24T15:31:14;2.30;;;1.90;;
11653;SDS011;5883;48.818;9.114;2023-04-24T15:33:59;1.90;;;1.70;;
11653;SDS011;5883;48.818;9.114;2023-04-24T15:36:44;2.58;;;1.80;;
11653;SDS011;5883;48.818;9.114;2023-04-24T15:39:29;1.98;;;1.58;;
11653;SDS011;5883;48.818;9.114;2023-04-24T15:44:44;2.67;;;1.80;;
11653;SDS011;5883;48.818;9.114;2023-04-24T15:47:31;1.70;;;1.60;;
11653;SDS011;5883;48.818;9.114;2023-04-24T15:50:16;1.40;;;1.30;;
11653;SDS011;5883;48.818;9.114;2023-04-24T15:53:02;1.85;;;1.23;;
11653;SDS011;5883;48.818;9.114;2023-04-24T15:55:47;1.95;;;1.60;;
11653;SDS011;5883;48.818;9.114;2023-04-24T15:58:33;3.53;;;1.90;;
11653;SDS011;5883;48.818;9.114;2023-04-24T16:01:18;1.30;;;1.20;;
11653;SDS011;5883;48.818;9.114;2023-04-24T16:04:05;3.17;;;1.40;;
11653;SDS011;5883;48.818;9.114;2023-04-24T16:06:51;1.60;;;1.30;;
11653;SDS011;5883;48.818;9.114;2023-04-24T16:09:36;1.65;;;1.33;;
11653;SDS011;5883;48.818;9.114;2023-04-24T16:12:21;3.08;;;1.80;;
11653;SDS011;5883;48.818;9.114;2023-04-24T16:15:10;2.03;;;1.50;;
11653;SDS011;5883;48.818;9.114;2023-04-24T16:17:55;2.08;;;1.60;;
11653;SDS011;5883;48.818;9.114;2023-04-24T16:20:42;1.40;;;1.20;;
11653;SDS011;5883;48.818;9.114;2023-04-24T16:23:27;1.70;;;1.50;;
11653;SDS011;5883;48.818;9.114;2023-04-24T16:26:12;1.77;;;1.63;;
11653;SDS011;5883;48.818;9.114;2023-04-24T16:28:58;1.50;;;1.40;;
11653;SDS011;5883;48.818;9.114;2023-04-24T16:31:43;3.08;;;1.70;;
11653;SDS011;5883;48.818;9.114;2023-04-24T16:34:28;3.03;;;1.70;;
11653;SDS011;5883;48.818;9.114;2023-04-24T16:37:14;1.88;;;1.67;;
11653;SDS011;5883;48.818;9.114;2023-04-24T16:39:59;1.55;;;1.45;;
11653;SDS011;5883;48.818;9.114;2023-04-24T16:42:44;1.90;;;1.50;;
11653;SDS011;5883;48.818;9.114;2023-04-24T16:45:31;1.75;;;1.50;;
11653;SDS011;5883;48.818;9.114;2023-04-24T16:48:16;1.65;;;1.40;;
11653;SDS011;5883;48.818;9.114;2023-04-24T16:51:01;1.75;;;1.40;;
11653;SDS011;5883;48.818;9.114;2023-04-24T16:53:47;1.63;;;1.52;;
11653;SDS011;5883;48.818;9.114;2023-04-24T16:56:32;2.33;;;1.30;;
11653;SDS011;5883;48.818;9.114;2023-04-24T16:59:17;1.55;;;1.23;;